createdAt,value
2022-09-06T00:02:36.057Z,101467.63
2022-09-06T00:07:37.796Z,101464.44
2022-09-06T00:12:39.225Z,101467.94
2022-09-06T00:17:40.652Z,101472.31
2022-09-06T00:22:42.044Z,101457.50
2022-09-06T00:27:43.714Z,101447.34
2022-09-06T00:32:45.097Z,101464.19
2022-09-06T00:37:46.569Z,101469.53
2022-09-06T00:42:47.978Z,101482.63
2022-09-06T00:47:49.477Z,101487.00
2022-09-06T00:52:52.081Z,101478.47
2022-09-06T00:57:53.927Z,101508.16
2022-09-06T01:02:55.412Z,101511.75
2022-09-06T01:07:56.846Z,101522.19
2022-09-06T01:13:24.727Z,101558.03
2022-09-06T01:18:39.848Z,101606.94
2022-09-06T01:23:52.095Z,101599.88
2022-09-06T01:28:54.102Z,101600.81
2022-09-06T01:34:20.498Z,101591.22
2022-09-06T01:39:29.568Z,101580.75
2022-09-06T01:44:31.515Z,101565.06
2022-09-06T01:49:45.139Z,101552.81
2022-09-06T01:54:46.496Z,101523.09
2022-09-06T01:59:57.560Z,101518.75
2022-09-06T02:05:05.201Z,101495.13
2022-09-06T02:10:21.285Z,101473.44
2022-09-06T02:15:34.515Z,101449.84
2022-09-06T02:20:40.143Z,101433.31
2022-09-06T02:25:44.568Z,101397.59
2022-09-06T02:30:49.098Z,101382.78
2022-09-06T02:35:53.093Z,101352.25
2022-09-06T02:40:55.900Z,101374.91
2022-09-06T02:45:57.350Z,101376.72
2022-09-06T02:51:02.099Z,101369.69
2022-09-06T02:56:04.008Z,101368.78
2022-09-06T03:01:05.835Z,101348.75
2022-09-06T03:06:07.297Z,101354.00
2022-09-06T03:11:08.690Z,101355.88
2022-09-06T03:16:10.150Z,101351.47
2022-09-06T03:21:11.666Z,101348.88
2022-09-06T03:26:13.100Z,101355.88
2022-09-06T03:31:14.534Z,101350.72
2022-09-06T03:36:15.996Z,101368.19
2022-09-06T03:41:17.367Z,101360.31
2022-09-06T03:46:18.792Z,101358.53
2022-09-06T03:51:21.011Z,101363.78
2022-09-06T03:56:22.436Z,101372.47
2022-09-06T04:01:23.860Z,101402.09
2022-09-06T04:06:25.258Z,101394.31
2022-09-06T04:11:26.645Z,101384.69
2022-09-06T04:16:28.110Z,101398.69
2022-09-06T04:21:29.979Z,101396.91
2022-09-06T04:26:31.498Z,101395.16
2022-09-06T04:31:32.877Z,101391.75
2022-09-06T04:36:34.319Z,101390.81
2022-09-06T04:41:35.725Z,101394.31
2022-09-06T04:46:37.159Z,101396.03
2022-09-06T04:51:39.553Z,101397.78
2022-09-06T04:56:40.924Z,101402.16
2022-09-06T05:01:42.320Z,101409.19
2022-09-06T05:06:44.863Z,101414.47
2022-09-06T05:11:46.372Z,101415.41
2022-09-06T05:16:48.089Z,101430.22
2022-09-06T05:21:51.009Z,101431.16
2022-09-06T05:26:52.446Z,101432.91
2022-09-06T05:31:54.112Z,101439.84
2022-09-06T05:36:55.664Z,101451.19
2022-09-06T05:41:57.122Z,101465.13
2022-09-06T05:46:58.523Z,101486.06
2022-09-06T05:51:59.882Z,101482.59
2022-09-06T05:57:01.406Z,101484.28
2022-09-06T06:02:07.076Z,101490.41
2022-09-06T06:07:08.769Z,101493.88
2022-09-06T06:12:10.415Z,101501.72
2022-09-06T06:17:11.794Z,101506.03
2022-09-06T06:22:13.255Z,101497.28
2022-09-06T06:27:14.610Z,101492.88
2022-09-06T06:32:16.025Z,101488.44
2022-09-06T06:37:17.451Z,101470.88
2022-09-06T06:42:22.008Z,101468.09
2022-09-06T06:47:23.410Z,101456.47
2022-09-06T06:52:25.577Z,101423.75
2022-09-06T06:57:26.977Z,101419.31
2022-09-06T07:02:30.708Z,101414.50
2022-09-06T07:07:33.514Z,101416.81
2022-09-06T07:12:36.909Z,101399.81
2022-09-06T07:17:38.423Z,101405.69
2022-09-06T07:22:40.465Z,101394.00
2022-09-06T07:27:47.132Z,101378.72
2022-09-06T07:32:49.396Z,101383.28
2022-09-06T07:37:54.530Z,101381.03
2022-09-06T07:42:56.946Z,101382.59
2022-09-06T07:47:59.672Z,101395.50
2022-09-06T07:58:06.477Z,101387.75
2022-09-06T08:03:07.839Z,101389.84
2022-09-06T08:13:30.564Z,101374.00
2022-09-06T08:18:32.125Z,101379.06
2022-09-06T08:23:33.717Z,101379.44
2022-09-06T08:28:35.135Z,101362.63
2022-09-06T08:33:37.584Z,101373.50
2022-09-06T08:38:39.037Z,101348.41
2022-09-06T08:43:49.001Z,101344.16
2022-09-06T08:48:50.659Z,101341.63
2022-09-06T08:53:54.731Z,101335.84
2022-09-06T08:59:09.142Z,101321.63
2022-09-06T09:04:14.291Z,101329.09
2022-09-06T09:09:16.282Z,101310.97
2022-09-06T09:14:22.350Z,101309.25
2022-09-06T09:19:23.682Z,101305.75
2022-09-06T09:24:25.198Z,101301.84
2022-09-06T09:29:29.521Z,101302.06
2022-09-06T09:34:33.464Z,101280.72
2022-09-06T09:39:38.005Z,101297.50
2022-09-06T09:44:43.280Z,101287.25
2022-09-06T09:49:44.660Z,101296.63
2022-09-06T09:54:46.893Z,101289.09
2022-09-06T09:59:54.353Z,101291.06
2022-09-06T10:05:00.879Z,101292.22
2022-09-06T10:10:07.369Z,101287.72
2022-09-06T10:15:10.428Z,101286.69
2022-09-06T10:20:12.730Z,101278.88
2022-09-06T10:25:21.099Z,101287.41
2022-09-06T10:30:22.631Z,101277.88
2022-09-06T10:35:25.367Z,101268.69
2022-09-06T10:40:37.088Z,101265.53
2022-09-06T10:45:58.807Z,101269.44
2022-09-06T10:51:18.962Z,101267.75
2022-09-06T10:56:30.402Z,101275.16
2022-09-06T11:01:34.880Z,101279.91
2022-09-06T11:06:45.418Z,101271.09
2022-09-06T11:11:55.247Z,101281.38
2022-09-06T11:17:04.944Z,101270.63
2022-09-06T11:22:23.193Z,101278.56
2022-09-06T11:27:30.661Z,101288.38
2022-09-06T11:32:38.122Z,101279.25
2022-09-06T11:37:42.893Z,101294.34
2022-09-06T11:42:44.502Z,101302.16
2022-09-06T11:47:47.898Z,101301.22
2022-09-06T11:52:58.215Z,101299.09
2022-09-06T11:58:00.707Z,101305.13
2022-09-06T12:08:28.134Z,101304.06
2022-09-06T12:13:51.358Z,101294.50
2022-09-06T12:18:54.534Z,101301.00
2022-09-06T12:23:55.862Z,101291.69
2022-09-06T12:28:58.143Z,101287.22
2022-09-06T12:34:05.560Z,101279.78
2022-09-06T12:39:12.152Z,101282.00
2022-09-06T12:44:14.864Z,101266.28
2022-09-06T12:49:19.383Z,101271.81
2022-09-06T12:54:22.209Z,101255.31
2022-09-06T12:59:25.175Z,101248.56
2022-09-06T13:04:41.694Z,101244.28
2022-09-06T13:09:44.409Z,101248.81
2022-09-06T13:14:45.939Z,101235.47
2022-09-06T13:19:51.703Z,101246.72
2022-09-06T13:24:58.707Z,101240.22
2022-09-06T13:30:10.062Z,101241.75
2022-09-06T13:35:22.701Z,101235.66
2022-09-06T13:40:48.553Z,101220.94
2022-09-06T13:46:09.116Z,101201.00
2022-09-06T13:51:10.563Z,101198.41
2022-09-06T13:56:11.999Z,101207.59
2022-09-06T14:01:14.254Z,101202.63
2022-09-06T14:06:15.710Z,101203.25
2022-09-06T14:11:17.328Z,101187.94
2022-09-06T14:16:18.753Z,101172.88
2022-09-06T14:21:20.211Z,101173.81
2022-09-06T14:26:22.321Z,101176.94
2022-09-06T14:31:26.516Z,101175.34
2022-09-06T14:36:31.860Z,101189.03
2022-09-06T14:41:33.314Z,101176.91
2022-09-06T14:46:35.075Z,101184.59
2022-09-06T14:51:38.517Z,101186.06
2022-09-06T14:56:41.012Z,101189.59
2022-09-06T15:01:42.519Z,101190.03
2022-09-06T15:06:47.116Z,101185.72
2022-09-06T15:11:50.664Z,101187.22
2022-09-06T15:16:55.837Z,101182.88
2022-09-06T15:21:57.751Z,101181.56
2022-09-06T15:26:59.708Z,101178.72
2022-09-06T15:32:01.121Z,101166.16
2022-09-06T15:37:02.549Z,101162.75
2022-09-06T15:42:04.022Z,101151.91
2022-09-06T15:47:05.643Z,101139.69
2022-09-06T15:52:09.332Z,101133.94
2022-09-06T15:57:11.069Z,101134.31
2022-09-06T16:02:12.972Z,101141.41
2022-09-06T16:07:14.380Z,101149.91
2022-09-06T16:12:15.835Z,101147.66
2022-09-06T16:17:17.187Z,101133.16
2022-09-06T16:22:18.547Z,101125.84
2022-09-06T16:27:19.893Z,101129.00
2022-09-06T16:32:21.318Z,101125.88
2022-09-06T16:37:23.442Z,101134.56
2022-09-06T16:42:24.805Z,101137.41
2022-09-06T16:47:26.119Z,101138.19
2022-09-06T16:52:27.769Z,101133.16
2022-09-06T16:57:29.161Z,101140.22
2022-09-06T17:02:31.127Z,101143.34
2022-09-06T17:07:32.961Z,101148.72
2022-09-06T17:12:34.338Z,101146.91
2022-09-06T17:17:35.824Z,101133.94
2022-09-06T17:22:37.351Z,101129.47
2022-09-06T17:27:38.891Z,101141.56
2022-09-06T17:32:40.303Z,101137.75
2022-09-06T17:37:41.678Z,101149.06
2022-09-06T17:42:43.021Z,101145.88
2022-09-06T17:47:46.182Z,101147.31
2022-09-06T17:52:51.204Z,101149.25
2022-09-06T17:57:52.585Z,101155.28
2022-09-06T18:02:54.384Z,101157.38
2022-09-06T18:07:55.817Z,101155.50
2022-09-06T18:12:57.225Z,101153.16
2022-09-06T18:17:58.601Z,101146.28
2022-09-06T18:23:00.339Z,101142.09
2022-09-06T18:28:01.875Z,101138.91
2022-09-06T18:33:03.435Z,101139.13
2022-09-06T18:38:09.759Z,101138.56
2022-09-06T18:43:15.334Z,101136.44
2022-09-06T18:48:17.357Z,101127.47
2022-09-06T18:53:21.252Z,101123.41
2022-09-06T18:58:23.953Z,101121.69
2022-09-06T19:03:27.224Z,101117.06
2022-09-06T19:08:28.738Z,101126.97
2022-09-06T19:13:30.502Z,101123.69
2022-09-06T19:18:32.788Z,101118.69
2022-09-06T19:23:35.779Z,101098.81
2022-09-06T19:28:38.031Z,101085.09
2022-09-06T19:33:40.313Z,101075.94
2022-09-06T19:39:01.840Z,101070.94
2022-09-06T19:44:05.991Z,101065.16
2022-09-06T19:49:08.368Z,101056.47
2022-09-06T19:54:09.796Z,101046.03
2022-09-06T19:59:13.008Z,101041.78
2022-09-06T20:04:14.968Z,101048.84
2022-09-06T20:09:16.597Z,101046.22
2022-09-06T20:14:18.137Z,101048.53
2022-09-06T20:19:21.745Z,101084.31
2022-09-06T20:24:23.242Z,101090.63
2022-09-06T20:29:24.722Z,101086.84
2022-09-06T20:34:26.181Z,101070.06
2022-09-06T20:39:27.616Z,101049.06
2022-09-06T20:44:29.609Z,101040.44
2022-09-06T20:49:31.163Z,101024.78
2022-09-06T20:54:32.922Z,101000.19
2022-09-06T20:59:34.343Z,100989.69
2022-09-06T21:04:35.690Z,100980.94
2022-09-06T21:09:37.568Z,100976.91
2022-09-06T21:14:38.957Z,100968.28
2022-09-06T21:19:40.362Z,100961.16
2022-09-06T21:24:41.754Z,100955.69
2022-09-06T21:29:43.252Z,100952.94
2022-09-06T21:34:44.686Z,100944.19
2022-09-06T21:39:55.026Z,100939.84
2022-09-06T21:44:56.509Z,100955.47
2022-09-06T21:49:57.965Z,100957.41
2022-09-06T21:54:59.530Z,100961.25
2022-09-06T22:00:01.001Z,100935.84
2022-09-06T22:05:07.372Z,100918.59
2022-09-06T22:10:08.852Z,100908.22
2022-09-06T22:15:10.545Z,100891.81
2022-09-06T22:20:12.261Z,100908.41
2022-09-06T22:25:13.820Z,100878.78
2022-09-06T22:30:16.350Z,100890.16
2022-09-06T22:35:17.786Z,100911.31
2022-09-06T22:40:19.191Z,100950.91
2022-09-06T22:45:21.200Z,101130.22
2022-09-06T22:50:22.616Z,101174.09
2022-09-06T22:55:24.254Z,101153.28
2022-09-06T23:00:28.765Z,101166.91
2022-09-06T23:05:31.414Z,101231.94
2022-09-06T23:10:32.954Z,101199.31
2022-09-06T23:15:35.039Z,101215.44
2022-09-06T23:20:37.212Z,101212.94
2022-09-06T23:25:39.035Z,101215.75
2022-09-06T23:30:40.563Z,101235.09
2022-09-06T23:35:43.800Z,101204.69
2022-09-06T23:40:45.224Z,101182.97
2022-09-06T23:45:46.777Z,101146.44
2022-09-06T23:50:48.149Z,101149.00
2022-09-06T23:55:49.845Z,101152.53
